Detall de PIREP

Printer-friendly versionPDF version

[2017/09/10 04:48:00]
Flight IATA:CT0001
Pilot Number:041
Company ICAO:CAT
Aircraft Type:B752/E
PAX:160
Aircraft Registration:PAX
Departing Airport: LEMH
Destination Airport: LEVC
Alternate Airport:LEBL
Online: VATSIM
Route:EPAMA A33 ARGOR
Flight Level:FL230
No Slew and time accel
No pause
Crash detect
Detect pilot in Cockpit between each 30 and 45 minutes
04:48 Zero fuel Weight: 183660 Lbs, Fuel Weight: 40791 Lbs
04:48 VATSIM:LEMH 100430Z 36007KT 9999 -RA FEW031TCU SCT035 BKN046 17/14 Q1004
04:48 VATSIM:LEVC 100430Z 30004KT 240V350 9999 FEW050 15/12 Q1009 NOSIG
04:48 VOICE CATALONIAN
05:03 Parking Brakes off
05:09 Take-off
05:09 Take off Weight: 222967 Lbs
05:09 Wind: 019º @ 012 Knots Heading: 008º
05:09 POS N39º 51´ 53´´ E004º 13´ 09´´
05:09 Gear Up: 185 Knots
05:09 Flaps:2 at 185 Knots
05:10 Flaps:1 at 196 Knots
05:10 Flaps:0 at 200 Knots
05:15 TOC
05:15Fuel Weight: 36732 Lb
05:24 Wind:279º@045 Knots Heading: 234º Ground Speed: 377 Knots Altitude 22746 ft
05:39 Wind:359º@041 Knots Heading: 279º Ground Speed: 404 Knots Altitude 22952 ft
05:44 TOD
05:44 Fuel Weight: 32591 Lb
05:54 Wind:107º@026 Knots Heading: 263º Ground Speed: 294 Knots Altitude 9737 ft
05:54 Flaps:1 at 237 Knots
06:01 Flaps:2 at 241 Knots
06:01 Flaps:3 at 190 Knots
06:02 Flaps:4 at 174 Knots
06:02 Gear Down: 168 Knots
06:03 Flaps:5 at 159 Knots
06:03 Flaps:6 at 144 Knots
06:06 TouchDown:Rate -435 ft/min Speed: 131 Knots
06:06 VATSIM:LEVC 100530Z VRB01KT CAVOK 15/12 Q1010 NOSIG
06:06 Land
06:06 Wind:044º@004 Knots
06:06 Heading: 294º
06:06 Flight Duration: 00:57
06:06 Landing Weight: 214264 Lbs
06:06 POS N39º 29´ 21´´ W000º 28´ 52´´
06:09 Parking brakes on
06:09 Block to Block Duration: 01:06
06:09 Final Fuel: 30297 Lbls
06:09 SpentFuel: 10493 Lbls
06:09 Flight Length: 318 NM
06:09 TOD Land Length: 98 NM

Exportar CSV

Powered by Drupal - Modified by Danger4k